Time;durP1;ratioP1;P1;durP2;ratioP2;P2;SDS_P1;SDS_P2;PMS_P1;PMS_P2;Temp;Humidity;BMP_temperature;BMP_pressure;BME280_temperature;BME280_humidity;BME280_pressure;Samples;Min_cycle;Max_cycle;Signal;HPM_P1;HPM_P2
2021/07/05 00:00:14;;;;;;;2.10;1.30;;;;;;;18.24;73.86;99940.06;5031907;28;20395;-91
2021/07/05 00:02:40;;;;;;;3.30;1.17;;;;;;;18.25;74.00;99927.13;5032067;28;20478;-91
2021/07/05 00:05:07;;;;;;;2.42;1.00;;;;;;;18.26;74.04;99921.34;5033811;28;20795;-92
2021/07/05 00:07:32;;;;;;;1.85;0.88;;;;;;;18.23;73.84;99921.97;5033040;28;20403;-92
2021/07/05 00:09:58;;;;;;;2.70;1.00;;;;;;;18.24;73.98;99929.09;5033562;28;20407;-92
2021/07/05 00:12:23;;;;;;;2.00;0.90;;;;;;;18.24;73.87;99925.53;5016741;28;20413;-92
2021/07/05 00:14:49;;;;;;;1.17;0.98;;;;;;;18.26;73.80;99936.97;5032850;28;20498;-92
2021/07/05 00:17:14;;;;;;;1.53;0.70;;;;;;;18.30;73.65;99941.56;5028500;28;20772;-92
2021/07/05 00:19:39;;;;;;;3.90;1.10;;;;;;;18.31;73.76;99939.63;5030900;28;20455;-93
2021/07/05 00:22:05;;;;;;;5.50;0.90;;;;;;;18.29;73.85;99933.63;5033576;28;20736;-92
2021/07/05 00:24:30;;;;;;;1.23;1.07;;;;;;;18.30;73.88;99932.50;5033423;28;20407;-91
2021/07/05 00:26:56;;;;;;;2.20;0.90;;;;;;;18.28;73.61;99930.06;5032395;28;21025;-92
2021/07/05 00:29:21;;;;;;;4.20;0.80;;;;;;;18.30;73.96;99938.00;5021424;28;21271;-91
2021/07/05 00:31:46;;;;;;;4.33;1.30;;;;;;;18.31;73.67;99920.44;5027175;28;20889;-92
2021/07/05 00:34:12;;;;;;;1.50;0.87;;;;;;;18.38;73.60;99921.59;5032743;28;20750;-92
2021/07/05 00:36:37;;;;;;;3.73;1.00;;;;;;;18.39;73.85;99920.50;5028522;28;20404;-92
2021/07/05 00:39:04;;;;;;;4.15;0.80;;;;;;;18.37;73.82;99928.22;5028836;28;20438;-92
2021/07/05 00:41:29;;;;;;;2.85;0.85;;;;;;;18.31;74.15;99917.69;5032589;28;20461;-92
2021/07/05 00:43:57;;;;;;;3.25;0.85;;;;;;;18.29;74.03;99914.41;5032640;28;20810;-92
2021/07/05 00:46:23;;;;;;;2.40;0.80;;;;;;;18.28;74.11;99921.84;5031173;28;20469;-92
2021/07/05 00:48:48;;;;;;;7.97;1.30;;;;;;;18.28;74.07;99930.06;5028322;28;20466;-92
2021/07/05 00:51:13;;;;;;;3.80;1.07;;;;;;;18.30;74.14;99918.78;5043548;28;20906;-92
2021/07/05 00:53:39;;;;;;;2.50;1.50;;;;;;;18.28;74.12;99919.09;5032540;28;20886;-92
2021/07/05 00:56:05;;;;;;;2.90;1.37;;;;;;;18.26;74.27;99918.59;5031892;28;20438;-92
2021/07/05 00:58:31;;;;;;;2.10;0.90;;;;;;;18.22;74.55;99912.09;5031050;28;20484;-90
2021/07/05 01:00:56;;;;;;;4.00;1.02;;;;;;;18.22;74.62;99919.50;5032141;28;20482;-93
2021/07/05 01:03:22;;;;;;;4.80;1.00;;;;;;;18.19;74.58;99918.22;5030912;28;20404;-93
2021/07/05 01:05:47;;;;;;;2.80;1.07;;;;;;;18.15;74.53;99923.50;5032364;28;20403;-92
2021/07/05 01:08:12;;;;;;;5.67;1.30;;;;;;;18.17;74.80;99919.63;5032199;28;20464;-93
2021/07/05 01:10:38;;;;;;;5.73;1.20;;;;;;;18.18;74.83;99918.53;5030894;28;20486;-92
2021/07/05 01:13:04;;;;;;;2.70;1.07;;;;;;;18.20;74.83;99913.53;5030366;28;20454;-92
2021/07/05 01:15:31;;;;;;;2.30;1.35;;;;;;;18.24;74.86;99912.63;5032110;28;20493;-92
2021/07/05 01:18:00;;;;;;;2.97;1.05;;;;;;;18.27;75.00;99905.69;5032203;28;20395;-92
2021/07/05 01:20:28;;;;;;;2.78;1.17;;;;;;;18.27;74.76;99903.78;5032098;28;20410;-92
2021/07/05 01:22:54;;;;;;;4.53;1.27;;;;;;;18.26;74.67;99901.31;5031784;28;20445;-92
2021/07/05 01:25:22;;;;;;;3.65;1.20;;;;;;;18.25;74.56;99903.25;5032010;28;20403;-92
2021/07/05 01:27:48;;;;;;;1.27;1.27;;;;;;;18.24;74.71;99898.91;5030661;28;20402;-92
2021/07/05 01:30:17;;;;;;;3.15;1.35;;;;;;;18.21;74.75;99895.97;5030342;28;20400;-92
2021/07/05 01:32:43;;;;;;;2.03;1.17;;;;;;;18.18;74.68;99885.63;5027376;28;20401;-92
2021/07/05 01:35:10;;;;;;;4.18;1.30;;;;;;;18.15;74.65;99885.09;5042210;28;20917;-92
2021/07/05 01:37:36;;;;;;;3.47;1.13;;;;;;;18.12;74.89;99891.19;5030673;28;20413;-92
2021/07/05 01:40:05;;;;;;;2.40;1.40;;;;;;;18.09;74.93;99889.06;5031381;28;20418;-92
2021/07/05 01:42:31;;;;;;;1.27;1.23;;;;;;;18.07;75.22;99887.78;5030874;28;20817;-92
2021/07/05 01:44:56;;;;;;;4.27;1.60;;;;;;;18.03;75.11;99893.06;5030654;28;20396;-93
2021/07/05 01:47:21;;;;;;;3.50;1.50;;;;;;;17.99;75.13;99888.47;5030541;28;20759;-92
2021/07/05 01:49:47;;;;;;;2.10;1.40;;;;;;;18.00;75.10;99895.59;5031964;28;20410;-93
2021/07/05 01:52:13;;;;;;;1.23;1.20;;;;;;;18.04;75.29;99889.22;5031645;28;20898;-91
2021/07/05 01:54:39;;;;;;;2.67;1.33;;;;;;;18.10;75.22;99870.69;5027294;28;20402;-91
2021/07/05 01:57:05;;;;;;;2.60;1.27;;;;;;;18.11;75.00;99878.59;5030621;28;20406;-92
2021/07/05 01:59:31;;;;;;;2.70;1.33;;;;;;;18.09;74.92;99872.63;5030270;28;20407;-93
2021/07/05 02:01:56;;;;;;;1.60;1.30;;;;;;;18.05;75.02;99879.84;5030630;28;20399;-92
2021/07/05 02:04:25;;;;;;;6.70;1.40;;;;;;;18.04;75.22;99889.22;5031564;28;20403;-92
2021/07/05 02:06:50;;;;;;;2.22;1.25;;;;;;;18.06;75.00;99900.66;5030472;28;20426;-92
2021/07/05 02:09:16;;;;;;;5.50;1.37;;;;;;;18.02;74.96;99896.09;5030362;28;20434;-92
2021/07/05 02:11:42;;;;;;;1.30;1.10;;;;;;;18.00;75.15;99892.84;5031336;28;20746;-91
2021/07/05 02:14:07;;;;;;;1.90;1.25;;;;;;;17.98;75.65;99897.84;5031101;28;20391;-92
2021/07/05 02:16:33;;;;;;;1.70;1.27;;;;;;;17.98;75.83;99881.41;5029599;28;20419;-92
2021/07/05 02:18:59;;;;;;;1.70;1.20;;;;;;;17.98;75.77;99881.41;5033063;28;20901;-92
2021/07/05 02:21:24;;;;;;;1.60;1.00;;;;;;;18.05;75.84;99881.75;5033951;28;20421;-92
2021/07/05 02:23:50;;;;;;;2.13;1.00;;;;;;;18.05;75.80;99884.50;5033763;28;20552;-92
2021/07/05 02:26:15;;;;;;;3.35;1.75;;;;;;;18.08;75.52;99886.63;5033436;28;20422;-92
2021/07/05 02:28:41;;;;;;;1.37;1.20;;;;;;;18.09;75.61;99893.75;5034144;28;20478;-93
2021/07/05 02:31:08;;;;;;;1.50;1.05;;;;;;;18.10;75.71;99898.94;5033577;28;20441;-92
2021/07/05 02:33:34;;;;;;;1.33;1.02;;;;;;;18.11;75.52;99889.56;5033092;28;20403;-92
2021/07/05 02:36:04;;;;;;;2.83;1.40;;;;;;;18.17;75.59;99898.50;5035005;28;20481;-92
2021/07/05 02:38:31;;;;;;;2.67;1.45;;;;;;;18.18;75.63;99900.13;5032646;28;20419;-92
2021/07/05 02:40:57;;;;;;;4.00;1.40;;;;;;;18.19;75.47;99884.47;5029359;28;20922;-92
2021/07/05 02:43:23;;;;;;;3.30;1.50;;;;;;;18.19;75.63;99893.53;5035008;28;20413;-92
2021/07/05 02:45:51;;;;;;;3.10;1.80;;;;;;;18.19;75.57;99890.78;5034038;28;20399;-92
2021/07/05 02:48:20;;;;;;;2.70;1.40;;;;;;;18.20;75.37;99881.44;5033662;28;20414;-91
2021/07/05 02:50:48;;;;;;;4.25;1.65;;;;;;;18.19;75.58;99877.06;5033751;28;20457;-93
2021/07/05 02:53:14;;;;;;;2.10;1.40;;;;;;;18.22;75.70;99870.97;5030589;28;20395;-93
2021/07/05 02:55:41;;;;;;;2.72;1.73;;;;;;;18.18;75.57;99869.94;5034952;28;20882;-92
2021/07/05 02:58:06;;;;;;;4.30;1.60;;;;;;;18.14;75.49;99868.97;5033602;28;20411;-92
2021/07/05 03:00:38;;;;;;;1.90;1.60;;;;;;;18.18;75.67;99872.69;5034718;28;20399;-92
2021/07/05 03:03:04;;;;;;;4.75;1.75;;;;;;;18.22;75.55;99867.41;5034512;28;20887;-92
2021/07/05 03:05:31;;;;;;;3.03;1.73;;;;;;;18.22;75.52;99868.22;5033829;28;20398;-93
2021/07/05 03:07:57;;;;;;;1.67;1.38;;;;;;;18.25;75.74;99867.59;5028350;28;20441;-91
2021/07/05 03:10:26;;;;;;;1.75;1.40;;;;;;;18.29;75.61;99867.78;5033092;28;20481;-92
2021/07/05 03:12:55;;;;;;;1.75;1.65;;;;;;;18.32;75.52;99873.47;5021854;28;20398;-92
2021/07/05 03:15:22;;;;;;;3.20;1.50;;;;;;;18.33;75.49;99866.88;5032856;28;20418;-92
2021/07/05 03:17:48;;;;;;;2.85;1.83;;;;;;;18.34;75.36;99867.69;5034155;28;20473;-92
2021/07/05 03:20:20;;;;;;;3.72;1.90;;;;;;;18.32;75.47;99859.75;5034372;28;20486;-92
2021/07/05 03:22:46;;;;;;;2.47;2.03;;;;;;;18.35;75.43;99859.13;5032284;28;20829;-92
2021/07/05 03:25:14;;;;;;;2.65;1.90;;;;;;;18.38;75.38;99864.00;5033202;28;20762;-93
2021/07/05 03:27:40;;;;;;;1.98;1.88;;;;;;;18.41;75.39;99866.13;5033971;28;20486;-91
2021/07/05 03:30:08;;;;;;;3.80;2.13;;;;;;;18.42;75.20;99856.78;5030775;28;20411;-92
2021/07/05 03:32:34;;;;;;;6.03;1.80;;;;;;;18.39;75.32;99854.66;5030118;28;20450;-92
2021/07/05 03:34:59;;;;;;;2.05;2.00;;;;;;;18.34;75.29;99853.97;5032232;28;20984;-92
2021/07/05 03:37:25;;;;;;;2.35;1.50;;;;;;;18.31;75.38;99858.13;5031660;28;20498;-92
2021/07/05 03:39:50;;;;;;;3.85;1.95;;;;;;;18.32;75.52;99856.19;5030332;28;20540;-92
2021/07/05 03:42:16;;;;;;;1.93;1.77;;;;;;;18.32;75.31;99865.25;5033678;28;20874;-92
2021/07/05 03:44:41;;;;;;;1.80;1.57;;;;;;;18.31;75.27;99879.28;5033840;28;20409;-92
2021/07/05 03:47:06;;;;;;;5.30;2.00;;;;;;;18.30;75.30;99883.97;5033546;28;20763;-91
2021/07/05 03:49:31;;;;;;;6.65;1.90;;;;;;;18.28;75.47;99888.91;5033699;28;20414;-91
2021/07/05 03:51:57;;;;;;;4.03;2.03;;;;;;;18.30;75.61;99891.38;5032562;28;20445;-92
2021/07/05 03:54:22;;;;;;;3.80;2.10;;;;;;;18.29;75.50;99896.03;5032548;28;20890;-92
2021/07/05 03:56:48;;;;;;;2.20;1.80;;;;;;;18.30;75.41;99896.84;5032193;28;20490;-92
2021/07/05 03:59:13;;;;;;;3.30;1.37;;;;;;;18.26;75.62;99893.91;5033620;28;20418;-92
2021/07/05 04:01:38;;;;;;;2.80;1.50;;;;;;;18.28;75.53;99897.16;5033698;28;20766;-91
2021/07/05 04:04:04;;;;;;;2.90;1.53;;;;;;;18.28;75.57;99901.81;5032023;28;20484;-93
2021/07/05 04:06:29;;;;;;;6.60;1.67;;;;;;;18.33;75.42;99912.69;5027889;28;20406;-92
2021/07/05 04:08:57;;;;;;;2.03;1.50;;;;;;;18.36;75.81;99914.81;5026932;28;20519;-93
2021/07/05 04:11:22;;;;;;;5.43;1.87;;;;;;;18.36;75.94;99918.38;5033720;28;20406;-93
2021/07/05 04:13:48;;;;;;;3.30;1.30;;;;;;;18.42;75.91;99919.06;5033065;28;20407;-93
2021/07/05 04:16:13;;;;;;;4.60;1.38;;;;;;;18.42;75.80;99902.59;5033507;28;20415;-92
2021/07/05 04:18:39;;;;;;;3.67;1.37;;;;;;;18.44;75.83;99905.84;5032496;28;20410;-90
2021/07/05 04:21:04;;;;;;;4.63;1.50;;;;;;;18.43;75.76;99902.31;5033518;28;20399;-92
2021/07/05 04:23:30;;;;;;;3.93;1.63;;;;;;;18.47;75.76;99903.31;5024080;28;20446;-92
2021/07/05 04:25:55;;;;;;;3.97;1.80;;;;;;;18.48;75.81;99904.91;5021940;28;20407;-93
2021/07/05 04:28:20;;;;;;;2.30;1.63;;;;;;;18.50;75.72;99894.47;5033606;28;20411;-93
2021/07/05 04:30:46;;;;;;;2.47;1.57;;;;;;;18.50;75.94;99899.16;5032451;28;20404;-92
2021/07/05 04:33:11;;;;;;;4.00;1.63;;;;;;;18.48;75.81;99896.69;5032566;28;20399;-91
2021/07/05 04:35:37;;;;;;;6.13;1.70;;;;;;;18.50;75.79;99899.16;5030881;28;20724;-92
2021/07/05 04:38:03;;;;;;;2.40;1.40;;;;;;;18.51;76.04;99906.25;5031499;28;20399;-92
2021/07/05 04:40:31;;;;;;;5.22;1.38;;;;;;;18.51;76.08;99907.06;5028597;28;20407;-92
2021/07/05 04:42:57;;;;;;;1.90;1.67;;;;;;;18.47;76.53;99913.47;5031627;28;20403;-92
2021/07/05 04:45:28;;;;;;;2.22;1.58;;;;;;;18.52;76.11;99907.88;5028773;28;20402;-93
2021/07/05 04:47:55;;;;;;;1.77;1.58;;;;;;;18.56;76.00;99911.63;5030537;28;20811;-92
2021/07/05 04:50:21;;;;;;;4.88;1.42;;;;;;;18.58;75.87;99914.88;5030661;28;20410;-93
2021/07/05 04:52:46;;;;;;;3.58;1.80;;;;;;;18.58;76.22;99912.94;5032557;28;20498;-92
2021/07/05 04:55:16;;;;;;;4.47;2.10;;;;;;;18.58;76.12;99917.59;5031050;28;20415;-91
2021/07/05 04:57:43;;;;;;;2.03;1.40;;;;;;;18.56;76.26;99928.09;5028575;28;20909;-90
2021/07/05 05:00:35;;;;;;;2.00;1.60;;;;;;;18.59;76.24;99935.72;5030964;28;20411;-91
2021/07/05 05:03:03;;;;;;;2.60;1.67;;;;;;;18.59;76.13;99935.72;5028648;28;20399;-91
2021/07/05 05:05:30;;;;;;;3.30;1.55;;;;;;;18.58;76.30;99945.06;5030052;28;20486;-91
2021/07/05 05:07:56;;;;;;;6.28;1.73;;;;;;;18.57;76.19;99938.75;5032201;28;20438;-92
2021/07/05 05:10:22;;;;;;;4.82;1.95;;;;;;;18.56;76.28;99948.13;5027910;28;20409;-91
2021/07/05 05:12:49;;;;;;;3.63;2.40;;;;;;;18.57;76.43;99932.47;5028093;28;20474;-91
2021/07/05 05:15:18;;;;;;;4.43;2.10;;;;;;;18.58;76.70;99936.81;5030284;28;20406;-91
2021/07/05 05:17:45;;;;;;;3.67;1.70;;;;;;;18.61;76.51;99934.25;5029416;28;20445;-90
2021/07/05 05:20:11;;;;;;;3.88;2.20;;;;;;;18.62;76.40;99927.66;5022666;28;20435;-91
2021/07/05 05:22:41;;;;;;;9.25;2.20;;;;;;;18.67;76.33;99923.19;5022124;28;21364;-92
2021/07/05 05:25:08;;;;;;;8.93;2.53;;;;;;;18.63;76.49;99948.50;5022190;28;20473;-87
2021/07/05 05:27:34;;;;;;;3.95;1.83;;;;;;;18.64;76.33;99935.56;5026486;28;20442;-89
2021/07/05 05:30:00;;;;;;;5.55;1.88;;;;;;;18.62;76.42;99921.34;5028136;28;20443;-92
2021/07/05 05:32:25;;;;;;;9.10;2.08;;;;;;;18.65;76.18;99931.72;5027883;28;20422;-91
2021/07/05 05:34:51;;;;;;;5.90;1.70;;;;;;;18.64;76.53;99936.38;5026314;28;20411;-92
2021/07/05 05:37:17;;;;;;;3.30;1.67;;;;;;;18.63;76.50;99942.19;5027111;28;20414;-92
2021/07/05 05:39:43;;;;;;;3.50;1.83;;;;;;;18.61;76.40;99948.00;5027866;28;20434;-91
2021/07/05 05:42:09;;;;;;;3.47;1.60;;;;;;;18.62;76.52;99941.38;5028023;28;20415;-93
2021/07/05 05:44:34;;;;;;;3.40;1.67;;;;;;;18.59;76.55;99939.28;5030606;28;20403;-91
2021/07/05 05:46:59;;;;;;;8.53;1.87;;;;;;;18.63;76.66;99939.47;5030369;28;20395;-91
2021/07/05 05:49:25;;;;;;;2.28;1.65;;;;;;;18.62;76.78;99944.13;5019761;28;20500;-94
2021/07/05 05:51:50;;;;;;;1.90;1.47;;;;;;;18.66;76.74;99941.59;5029609;28;20464;-93
2021/07/05 05:54:16;;;;;;;2.73;1.77;;;;;;;18.70;76.19;99936.28;5029934;28;20395;-92
2021/07/05 05:56:42;;;;;;;6.27;1.97;;;;;;;18.71;76.77;99935.94;5032467;28;20399;-94
2021/07/05 05:59:10;;;;;;;5.10;1.90;;;;;;;18.72;76.64;99937.59;5029208;28;20890;-94
2021/07/05 06:01:37;;;;;;;2.58;2.05;;;;;;;18.74;76.85;99940.81;5029124;28;20406;-93
2021/07/05 06:04:03;;;;;;;2.80;1.60;;;;;;;18.76;76.78;99932.28;5031136;28;20395;-93
2021/07/05 06:06:28;;;;;;;4.25;1.50;;;;;;;18.81;76.69;99935.72;5032543;28;20430;-93
2021/07/05 06:08:54;;;;;;;5.78;1.75;;;;;;;18.85;76.88;99933.16;5033179;28;20426;-94
2021/07/05 06:11:20;;;;;;;6.03;1.77;;;;;;;18.85;76.87;99933.16;5031453;28;20771;-93
2021/07/05 06:13:46;;;;;;;3.47;1.87;;;;;;;18.86;76.61;99930.13;5033748;28;20410;-94
2021/07/05 06:16:12;;;;;;;5.10;2.10;;;;;;;18.90;76.92;99925.59;5035047;28;20426;-93
2021/07/05 06:18:37;;;;;;;5.33;1.97;;;;;;;18.94;76.91;99929.34;5033141;28;20419;-93
2021/07/05 06:21:03;;;;;;;3.95;2.05;;;;;;;18.97;76.58;99927.91;5032746;28;20956;-94
2021/07/05 06:23:29;;;;;;;4.17;1.97;;;;;;;18.97;77.05;99939.69;5033257;28;20411;-93
2021/07/05 06:25:56;;;;;;;2.90;1.90;;;;;;;19.01;76.49;99934.41;5033062;28;20402;-92
2021/07/05 06:28:23;;;;;;;2.90;1.52;;;;;;;19.03;76.67;99934.91;5032119;28;20529;-93
2021/07/05 06:30:49;;;;;;;5.47;2.20;;;;;;;19.00;76.81;99935.53;5018809;28;20463;-95
2021/07/05 06:33:16;;;;;;;2.28;1.95;;;;;;;19.08;76.79;99930.09;5030598;28;20414;-94
2021/07/05 06:35:43;;;;;;;4.43;2.17;;;;;;;19.14;76.52;99928.84;5032742;28;20407;-95
2021/07/05 06:38:15;;;;;;;8.20;2.08;;;;;;;19.25;76.30;99925.81;5033154;28;20399;-94
2021/07/05 06:40:42;;;;;;;7.55;1.90;;;;;;;19.34;76.21;99926.66;5024425;28;20457;-94
2021/07/05 06:43:08;;;;;;;2.90;2.00;;;;;;;19.38;76.03;99931.22;5032970;28;20383;-95
2021/07/05 06:45:42;;;;;;;3.20;1.95;;;;;;;19.43;75.68;99933.84;5031964;28;20788;-93
2021/07/05 06:48:08;;;;;;;3.92;1.90;;;;;;;19.43;75.56;99928.38;5031960;28;20442;-95
2021/07/05 06:50:38;;;;;;;5.43;2.13;;;;;;;19.49;75.79;99927.13;5032127;28;20411;-93
2021/07/05 06:53:09;;;;;;;2.50;1.80;;;;;;;19.58;75.64;99922.47;5032187;28;20414;-93
2021/07/05 06:55:37;;;;;;;2.22;1.80;;;;;;;19.65;75.35;99922.81;5027379;28;20408;-94
2021/07/05 06:58:03;;;;;;;2.95;1.90;;;;;;;19.84;75.36;99928.06;5030818;28;20875;-94
2021/07/05 07:00:29;;;;;;;5.57;1.80;;;;;;;19.93;74.62;99917.06;5029840;28;20502;-92
2021/07/05 07:02:56;;;;;;;3.08;2.00;;;;;;;19.98;74.65;99914.19;5032039;28;20901;-92
2021/07/05 07:05:22;;;;;;;3.58;1.70;;;;;;;20.00;74.20;99920.16;5030345;28;20422;-94
2021/07/05 07:07:51;;;;;;;2.90;1.95;;;;;;;20.00;74.23;99917.41;5035117;28;20486;-93
2021/07/05 07:10:18;;;;;;;3.15;1.55;;;;;;;20.06;74.10;99908.69;5033605;28;20403;-93
2021/07/05 07:12:54;;;;;;;2.87;1.90;;;;;;;20.10;73.31;99906.09;5033364;28;20406;-92
2021/07/05 07:15:26;;;;;;;1.70;1.60;;;;;;;20.10;73.45;99900.59;5031089;28;20424;-93
2021/07/05 07:20:39;;;;;;;4.40;1.73;;;;;;;20.13;73.74;99906.28;5035977;28;20449;-93
2021/07/05 07:23:04;;;;;;;3.87;1.60;;;;;;;20.23;73.41;99910.66;5031466;28;20486;-92
2021/07/05 07:25:30;;;;;;;5.60;1.30;;;;;;;20.27;73.15;99910.84;5035611;28;20489;-89
2021/07/05 07:27:55;;;;;;;1.83;1.30;;;;;;;20.20;72.99;99905.81;5040114;28;20409;-95
2021/07/05 07:30:21;;;;;;;2.87;1.50;;;;;;;20.22;73.13;99911.78;5036283;28;20391;-93
2021/07/05 07:32:47;;;;;;;1.50;1.25;;;;;;;20.28;73.40;99912.50;5035752;28;20398;-92
2021/07/05 07:35:15;;;;;;;2.75;1.30;;;;;;;20.39;73.22;99911.84;5034938;28;20498;-94
2021/07/05 07:37:44;;;;;;;1.85;1.40;;;;;;;20.55;73.02;99914.91;5034440;28;20434;-93
2021/07/05 07:40:15;;;;;;;1.67;1.52;;;;;;;20.64;72.15;99904.72;5034162;28;20419;-94
2021/07/05 07:42:42;;;;;;;3.10;1.20;;;;;;;20.68;71.49;99905.69;5034470;28;20394;-92
2021/07/05 07:45:08;;;;;;;2.05;1.30;;;;;;;20.61;71.69;99899.88;5034083;28;20970;-94
2021/07/05 07:47:33;;;;;;;2.25;1.00;;;;;;;20.62;71.85;99899.53;5034657;28;20443;-93
2021/07/05 07:49:59;;;;;;;2.43;1.20;;;;;;;20.77;71.81;99895.47;5035071;28;20514;-93
2021/07/05 07:52:28;;;;;;;1.40;1.10;;;;;;;20.82;71.14;99903.56;5036999;28;20426;-96
2021/07/05 07:54:54;;;;;;;1.48;1.25;;;;;;;20.81;70.60;99901.16;5035988;28;20407;-92
2021/07/05 07:57:20;;;;;;;2.07;1.00;;;;;;;20.80;70.70;99900.34;5026087;28;20439;-91
2021/07/05 07:59:45;;;;;;;1.38;1.27;;;;;;;20.79;70.83;99900.66;5035244;28;20450;-93
2021/07/05 08:02:12;;;;;;;2.42;1.23;;;;;;;20.74;70.43;99901.66;5034006;28;20430;-93
2021/07/05 08:04:40;;;;;;;1.40;1.23;;;;;;;20.67;70.45;99907.63;5033030;28;20498;-92
2021/07/05 08:07:11;;;;;;;2.50;1.40;;;;;;;20.66;70.22;99895.00;5031187;28;20414;-93
2021/07/05 08:09:38;;;;;;;1.83;1.00;;;;;;;20.73;70.50;99900.00;5033959;28;20435;-93
2021/07/05 08:12:05;;;;;;;2.30;1.17;;;;;;;20.74;70.02;99901.66;5033458;28;20403;-93
2021/07/05 08:14:30;;;;;;;3.92;1.20;;;;;;;20.71;69.36;99900.31;5033186;28;20400;-92
2021/07/05 08:16:55;;;;;;;1.20;1.07;;;;;;;20.75;69.53;99903.25;5031593;28;20430;-93
2021/07/05 08:19:21;;;;;;;2.00;1.10;;;;;;;20.75;68.94;99903.25;5029775;28;20417;-93
2021/07/05 08:21:46;;;;;;;1.25;0.98;;;;;;;20.77;69.51;99900.19;5016766;28;20498;-93
2021/07/05 08:24:12;;;;;;;1.73;0.90;;;;;;;20.71;68.82;99894.03;5019758;28;20439;-92
2021/07/05 08:26:38;;;;;;;0.95;0.95;;;;;;;20.57;69.38;99888.69;5017506;28;20414;-92
2021/07/05 08:29:06;;;;;;;1.80;0.82;;;;;;;20.52;69.48;99886.09;5015447;28;20989;-93
2021/07/05 08:31:32;;;;;;;2.33;0.95;;;;;;;20.57;70.17;99885.13;5015474;28;20518;-91
2021/07/05 08:33:59;;;;;;;2.77;1.00;;;;;;;20.61;69.71;99884.13;5016318;28;20777;-91
2021/07/05 08:36:24;;;;;;;3.75;1.33;;;;;;;20.63;70.19;99883.81;5021034;28;20406;-92
2021/07/05 08:38:50;;;;;;;1.43;1.10;;;;;;;20.68;69.90;99883.69;5019165;28;20407;-92
2021/07/05 08:41:16;;;;;;;2.00;1.23;;;;;;;20.69;69.93;99894.34;5035415;28;20725;-95
2021/07/05 08:43:44;;;;;;;1.00;1.00;;;;;;;20.73;70.12;99890.94;5035547;28;20403;-92
2021/07/05 08:46:12;;;;;;;0.90;0.88;;;;;;;20.70;69.47;99892.41;5028577;28;20407;-93
2021/07/05 08:48:40;;;;;;;1.02;0.88;;;;;;;20.77;69.44;99895.47;5032280;28;20402;-92
2021/07/05 08:51:08;;;;;;;1.75;0.85;;;;;;;20.84;69.47;99898.56;5027662;28;20406;-93
2021/07/05 08:53:34;;;;;;;2.38;0.80;;;;;;;20.86;68.85;99890.75;5036918;28;20400;-92
2021/07/05 08:55:59;;;;;;;1.30;0.80;;;;;;;20.77;68.46;99895.47;5033110;28;20422;-92
2021/07/05 08:58:25;;;;;;;1.00;0.50;;;;;;;20.73;68.54;99891.75;5031924;28;20489;-90
2021/07/05 09:00:51;;;;;;;2.00;0.53;;;;;;;20.73;68.27;99889.00;5032040;28;20461;-92
2021/07/05 09:03:22;;;;;;;0.70;0.40;;;;;;;20.68;68.02;99892.72;5031751;28;20846;-89
2021/07/05 09:06:06;;;;;;;1.30;0.77;;;;;;;20.74;68.21;99885.13;5031904;28;20805;-93
2021/07/05 09:08:35;;;;;;;1.67;0.57;;;;;;;20.75;68.27;99875.69;5032318;28;20407;-94
2021/07/05 09:11:01;;;;;;;1.63;1.10;;;;;;;20.75;68.02;99880.44;5034610;28;20419;-95
2021/07/05 09:13:27;;;;;;;0.80;0.50;;;;;;;20.81;68.25;99870.84;5036672;28;20763;-92
2021/07/05 09:15:55;;;;;;;0.50;0.50;;;;;;;20.92;68.72;99880.38;5032472;28;20423;-93
2021/07/05 09:18:32;;;;;;;1.10;0.60;;;;;;;20.95;68.47;99880.53;5031681;28;20410;-93
2021/07/05 09:21:13;;;;;;;0.52;0.43;;;;;;;20.99;68.33;99886.19;5032086;28;20410;-93
2021/07/05 09:23:57;;;;;;;0.60;0.60;;;;;;;21.05;68.49;99877.44;5031802;28;20425;-93
2021/07/05 09:26:28;;;;;;;1.60;0.60;;;;;;;21.18;68.25;99872.88;5031778;28;20429;-93
2021/07/05 09:28:54;;;;;;;2.75;0.70;;;;;;;21.25;67.56;99873.19;5031616;28;20486;-93
2021/07/05 09:31:41;;;;;;;2.22;0.70;;;;;;;21.34;66.86;99873.97;5021099;28;20446;-93
2021/07/05 09:34:43;;;;;;;2.08;0.60;;;;;;;21.62;67.19;99866.06;5032085;28;20411;-95
2021/07/05 09:37:24;;;;;;;1.15;0.73;;;;;;;21.86;66.48;99862.69;5031662;28;20457;-95
2021/07/05 09:40:05;;;;;;;2.73;0.90;;;;;;;22.04;65.77;99856.75;5031804;28;20552;-91
2021/07/05 09:42:34;;;;;;;1.42;0.60;;;;;;;22.06;65.61;99853.66;5031646;28;20414;-94
2021/07/05 09:45:01;;;;;;;2.13;0.90;;;;;;;22.07;65.71;99861.59;5031561;28;20411;-93
2021/07/05 09:47:27;;;;;;;1.77;0.70;;;;;;;22.17;66.04;99847.41;5023418;28;20407;-95
2021/07/05 09:49:57;;;;;;;3.15;0.60;;;;;;;22.33;65.27;99853.09;5031832;28;20482;-94
2021/07/05 09:52:27;;;;;;;1.90;0.70;;;;;;;22.45;65.54;99850.41;5031895;28;20426;-94
2021/07/05 09:54:59;;;;;;;1.33;0.70;;;;;;;22.48;64.22;99849.75;5032388;28;20461;-95
2021/07/05 09:57:40;;;;;;;1.23;0.40;;;;;;;22.45;63.94;99855.13;5031812;28;20898;-93
2021/07/05 10:00:09;;;;;;;0.60;0.50;;;;;;;22.58;64.08;99863.13;5046363;28;20418;-96
2021/07/05 10:02:36;;;;;;;0.90;0.57;;;;;;;22.67;62.81;99840.97;5024103;28;20407;-95
2021/07/05 10:05:16;;;;;;;0.75;0.75;;;;;;;22.98;62.54;99849.59;5032247;28;20395;-94
2021/07/05 10:07:42;;;;;;;0.83;0.57;;;;;;;23.06;62.22;99840.41;5026079;28;20411;-93
2021/07/05 10:10:13;;;;;;;2.38;0.40;;;;;;;23.09;61.53;99834.19;5030248;28;20399;-93
2021/07/05 10:12:42;;;;;;;0.40;0.38;;;;;;;23.12;61.57;99840.97;5030590;28;20475;-94
2021/07/05 10:15:11;;;;;;;0.70;0.70;;;;;;;23.17;61.91;99838.81;5031196;28;20482;-94
2021/07/05 10:20:49;;;;;;;0.68;0.40;;;;;;;23.04;61.64;99836.38;5034659;28;20490;-95
2021/07/05 10:23:16;;;;;;;2.22;0.50;;;;;;;22.99;61.70;99840.16;5027702;28;20413;-95
2021/07/05 10:25:50;;;;;;;0.45;0.45;;;;;;;22.92;61.72;99833.59;5032702;28;20410;-96
2021/07/05 10:28:20;;;;;;;1.10;0.30;;;;;;;22.88;61.25;99827.13;5034827;28;20921;-94
2021/07/05 10:30:53;;;;;;;0.20;0.20;;;;;;;22.75;61.55;99835.34;5030016;28;20399;-95
2021/07/05 10:33:20;;;;;;;2.25;0.40;;;;;;;22.68;61.13;99826.84;5030778;28;20898;-96
2021/07/05 10:35:48;;;;;;;0.50;0.40;;;;;;;22.74;62.26;99824.66;5025194;28;20412;-96
2021/07/05 10:38:20;;;;;;;0.40;0.40;;;;;;;22.78;62.04;99828.38;5031720;28;20396;-95
2021/07/05 10:40:55;;;;;;;1.00;0.40;;;;;;;22.92;62.12;99837.13;5035085;28;20434;-96
2021/07/05 10:43:48;;;;;;;0.33;0.30;;;;;;;22.87;60.78;99837.38;5037794;28;20498;-96
2021/07/05 10:46:36;;;;;;;1.38;0.47;;;;;;;22.93;60.95;99833.22;5034893;28;20403;-94
2021/07/05 10:49:02;;;;;;;0.35;0.30;;;;;;;23.07;59.84;99830.16;5037994;28;20403;-96
2021/07/05 10:51:47;;;;;;;0.90;0.40;;;;;;;23.16;60.00;99839.13;5033879;28;20454;-96
2021/07/05 10:54:12;;;;;;;0.93;0.32;;;;;;;23.14;60.13;99831.22;5035952;28;20415;-95
2021/07/05 10:56:44;;;;;;;0.47;0.37;;;;;;;23.21;60.41;99831.44;5030780;28;20402;-96
2021/07/05 10:59:13;;;;;;;1.10;0.30;;;;;;;23.15;59.96;99829.25;5028460;28;20465;-92
2021/07/05 11:01:43;;;;;;;1.92;0.40;;;;;;;23.08;60.41;99821.53;5030389;28;20407;-96
2021/07/05 11:04:29;;;;;;;1.00;0.40;;;;;;;23.00;60.61;99819.66;5030439;28;20425;-95
2021/07/05 11:06:57;;;;;;;2.60;0.57;;;;;;;22.95;61.11;99825.41;5031343;28;20407;-95
2021/07/05 11:09:24;;;;;;;0.70;0.45;;;;;;;23.01;61.07;99832.34;5035957;28;20391;-92
2021/07/05 11:11:58;;;;;;;1.70;0.40;;;;;;;23.04;60.79;99834.41;5029360;28;20763;-94
2021/07/05 11:14:33;;;;;;;1.50;0.50;;;;;;;23.24;60.64;99822.47;5035568;28;20533;-94
2021/07/05 11:17:06;;;;;;;0.90;0.32;;;;;;;23.30;60.22;99827.75;5034365;28;20422;-94
2021/07/05 11:19:42;;;;;;;1.57;0.50;;;;;;;23.23;60.43;99834.66;5025626;28;20981;-96
2021/07/05 11:22:07;;;;;;;0.50;0.40;;;;;;;23.22;61.33;99830.28;5035106;28;20413;-91
2021/07/05 11:25:04;;;;;;;0.60;0.60;;;;;;;22.98;61.12;99829.44;5032104;28;20415;-90
2021/07/05 11:27:48;;;;;;;0.30;0.30;;;;;;;23.08;61.02;99827.06;5034936;28;20955;-92
2021/07/05 11:30:16;;;;;;;2.90;0.40;;;;;;;23.81;60.01;99820.75;5030872;28;20407;-96
2021/07/05 11:32:44;;;;;;;0.43;0.40;;;;;;;24.18;58.46;99823.09;5034472;28;20410;-93
2021/07/05 11:35:36;;;;;;;1.38;0.60;;;;;;;24.71;57.30;99819.09;5024190;28;20430;-94
2021/07/05 11:38:07;;;;;;;0.70;0.40;;;;;;;24.88;56.31;99819.94;5035524;28;20399;-95
2021/07/05 11:40:53;;;;;;;1.25;0.38;;;;;;;24.94;56.13;99808.25;5036630;28;20423;-92
2021/07/05 11:44:00;;;;;;;0.50;0.50;;;;;;;24.77;56.48;99822.41;5049414;28;20400;-95